Flight Track Log - Related Links

Times and Time Zones

All times are in EDT time to prevent confusion due to time zone crossing. See the N51DM flight status page for this flight to view local times or setup timezone preferences in your user account.


Time Position Orientation Groundspeed Altitude Reporting Facility
EDT Latitude Longitude Course Direction KTS MPH feet Rate Location/Type
Mon 12:25:52 PM 17.9667 -63.1667 224° Southwest 200 230 6,400  Level San Juan Center
Mon 12:26:52 PM 17.9333 -63.2167 235° Southwest 190 219 8,700 2,050 Climbing San Juan Center
Mon 12:27:52 PM 17.8833 -63.2500 212° Southwest 190 219 10,500 1,700 Climbing San Juan Center
Mon 12:28:52 PM 17.8500 -63.2833 224° Southwest 210 242 12,100 1,686 Climbing San Juan Center
Mon 12:29:53 PM 17.8167 -63.3333 235° Southwest 200 230 13,900 1,686 Climbing San Juan Center
Mon 12:30:53 PM 17.7667 -63.3667 212° Southwest 210 242 15,500 1,550 Climbing San Juan Center
Mon 12:31:00 PM 17.7277 -63.4223 224° Southwest  Level FlightAware Approximate
Mon 12:31:53 PM 17.7167 -63.4167 224° Southwest 210 242 17,000  Level San Juan Center
Mon 12:32:54 PM 17.6667 -63.4500 212° Southwest 220 253 18,100 1,140 Climbing San Juan Center
Mon 12:33:54 PM 17.6333 -63.5000 235° Southwest 220 253 19,300 1,200 Climbing San Juan Center
Mon 12:34:54 PM 17.5833 -63.5500 224° Southwest 220 253 20,500 1,140 Climbing San Juan Center
Mon 12:35:55 PM 17.5333 -63.5833 212° Southwest 230 265 21,600 1,041 Climbing San Juan Center
Mon 12:36:55 PM 17.5000 -63.6333 235° Southwest 230 265 22,600 1,000 Climbing San Juan Center
Mon 12:37:55 PM 17.4500 -63.6833 224° Southwest 230 265 23,600 942 Climbing San Juan Center
Mon 12:38:56 PM 17.4000 -63.7167 212° Southwest 220 253 24,500 893 Climbing San Juan Center
Mon 12:39:56 PM 17.3500 -63.7667 224° Southwest 220 253 25,400 750 Climbing San Juan Center
Mon 12:40:56 PM 17.3000 -63.8167 224° Southwest 240 276 26,000 298 Climbing San Juan Center
Mon 12:41:57 PM 17.2667 -63.8667 235° Southwest 240 276 26,000 149 Level San Juan Center
Mon 12:42:57 PM 17.2167 -63.9167 224° Southwest 260 299 26,300  Climbing San Juan Center
Mon 12:43:57 PM 17.1500 -63.9833 224° Southwest 270 311 26,000 -149 Descending San Juan Center
Mon 12:44:58 PM 17.1167 -64.0333 235° Southwest 280 322 26,000  Level San Juan Center
Mon 12:45:58 PM 17.0500 -64.1000 224° Southwest 280 322 26,000  Level San Juan Center
Mon 12:46:58 PM 17.0167 -64.1500 235° Southwest 270 311 26,000  Level San Juan Center
Mon 12:47:58 PM 16.9500 -64.2000 216° Southwest 260 299 26,000  Level San Juan Center
Mon 12:48:59 PM 16.9000 -64.2667 232° Southwest 270 311 26,000  Level San Juan Center
Mon 12:49:59 PM 16.8333 -64.3167 216° Southwest 270 311 26,000  Level San Juan Center
Mon 12:50:59 PM 16.7833 -64.3667 224° Southwest 270 311 26,000  Level San Juan Center
Mon 12:51:59 PM 16.7333 -64.4167 224° Southwest 270 311 26,000  Level San Juan Center
Mon 12:53:00 PM 16.6833 -64.4833 232° Southwest 280 322 26,000  Level San Juan Center
Mon 12:54:00 PM 16.6333 -64.5333 224° Southwest 270 311 26,000  Level San Juan Center
Mon 12:55:00 PM 16.5667 -64.6000 224° Southwest 270 311 26,000  Level San Juan Center
Mon 12:56:01 PM 16.5167 -64.6500 224° Southwest 270 311 26,000  Level San Juan Center
Mon 12:57:01 PM 16.4667 -64.7000 224° Southwest 270 311 26,000  Level San Juan Center
Mon 12:58:01 PM 16.4000 -64.7667 224° Southwest 270 311 26,000  Level San Juan Center
Mon 12:59:01 PM 16.3500 -64.8167 224° Southwest 270 311 26,000  Level San Juan Center
Mon 01:00:02 PM 16.3000 -64.8667 224° Southwest 270 311 26,000  Level San Juan Center
Mon 01:01:02 PM 16.2500 -64.9167 224° Southwest 270 311 26,000  Level San Juan Center
Mon 01:02:02 PM 16.1833 -64.9667 216° Southwest 270 311 26,000  Level San Juan Center
Mon 01:03:03 PM 16.1333 -65.0167 224° Southwest 270 311 26,000  Level San Juan Center
Mon 01:04:03 PM 16.0833 -65.0833 232° Southwest 270 311 26,000  Level San Juan Center
Mon 01:05:03 PM 16.0333 -65.1333 224° Southwest 260 299 26,000  Level San Juan Center
Mon 01:06:04 PM 15.9833 -65.1833 224° Southwest 270 311 26,000  Level San Juan Center
Mon 01:07:04 PM 15.9333 -65.2167 213° Southwest 230 265 26,000  Level San Juan Center
Mon 01:08:04 PM 15.8833 -65.2667 224° Southwest 250 288 26,000  Level San Juan Center
Mon 01:09:05 PM 15.8333 -65.3333 232° Southwest 270 311 26,000  Level San Juan Center
Mon 01:10:05 PM 15.7667 -65.3833 216° Southwest 280 322 26,000  Level San Juan Center
Mon 01:11:05 PM 15.7167 -65.4333 224° Southwest 280 322 26,000  Level San Juan Center
Mon 01:12:06 PM 15.6500 -65.5000 224° Southwest 280 322 26,000 -50 Level San Juan Center
Mon 01:13:06 PM 15.6000 -65.5500 224° Southwest 270 311 25,900 -50 Descending San Juan Center
Mon 01:14:06 PM 15.5500 -65.6000 224° Southwest 280 322 25,900  Level San Juan Center
Mon 01:15:06 PM 15.4833 -65.6667 224° Southwest 280 322 25,900 50 Level San Juan Center
Mon 01:16:07 PM 15.4333 -65.7167 224° Southwest 280 322 26,000  Climbing San Juan Center
Mon 01:17:07 PM 15.3833 -65.7667 224° Southwest 280 322 25,900 -50 Descending San Juan Center
Mon 01:18:07 PM 15.3167 -65.8167 216° Southwest 270 311 25,900  Level San Juan Center
Mon 01:19:07 PM 15.2500 -65.8833 224° Southwest 280 322 25,900  Level San Juan Center
Mon 01:20:08 PM 15.2000 -65.9500 232° Southwest 290 334 25,900  Level San Juan Center
Mon 01:21:08 PM 15.1333 -66.0000 216° Southwest 280 322 25,900  Level San Juan Center
Mon 01:23:00 PM 15.0376 -66.0984 225° Southwest  Level FlightAware Approximate
Mon 01:30:00 PM 14.6784 -66.4668 225° Southwest  Level FlightAware Approximate
Mon 01:31:00 PM 14.6270 -66.5193 225° Southwest  Level FlightAware Approximate
Mon 01:32:00 PM 14.5756 -66.5718 225° Southwest  Level FlightAware Approximate
Mon 01:33:00 PM 14.5242 -66.6243 225° Southwest  Level FlightAware Approximate
Mon 01:34:00 PM 14.4728 -66.6767 225° Southwest  Level FlightAware Approximate
Mon 01:35:00 PM 14.4096 -66.6994 179° South  Level FlightAware Approximate
Mon 01:36:00 PM 14.3374 -66.6983 179° South  Level FlightAware Approximate
Mon 01:37:00 PM 14.2651 -66.6972 179° South  Level FlightAware Approximate
Mon 01:38:00 PM 14.1929 -66.6961 179° South  Level FlightAware Approximate
Mon 01:39:00 PM 14.1206 -66.6949 179° South  Level FlightAware Approximate
Mon 01:40:00 PM 14.0484 -66.6938 179° South  Level FlightAware Approximate
Mon 01:41:00 PM 13.9761 -66.6927 179° South  Level FlightAware Approximate
Mon 01:42:00 PM 13.9039 -66.6916 179° South  Level FlightAware Approximate
Mon 01:43:00 PM 13.8316 -66.6905 179° South  Level FlightAware Approximate
Mon 01:44:00 PM 13.7594 -66.6894 179° South  Level FlightAware Approximate
Mon 01:45:00 PM 13.6871 -66.6883 179° South  Level FlightAware Approximate
Mon 01:46:00 PM 13.6149 -66.6872 179° South  Level FlightAware Approximate
Mon 01:47:00 PM 13.5426 -66.6861 179° South  Level FlightAware Approximate
Mon 01:48:00 PM 13.4704 -66.6850 179° South  Level FlightAware Approximate
Mon 01:49:00 PM 13.3981 -66.6839 179° South  Level FlightAware Approximate
Mon 01:50:00 PM 13.3259 -66.6828 179° South  Level FlightAware Approximate
Mon 01:51:00 PM 13.2536 -66.6817 179° South  Level FlightAware Approximate
Mon 01:52:00 PM 13.1814 -66.6806 179° South  Level FlightAware Approximate
Mon 01:53:00 PM 13.1091 -66.6795 179° South  Level FlightAware Approximate
Mon 01:54:00 PM 13.0369 -66.6784 179° South  Level FlightAware Approximate
Mon 01:55:00 PM 12.9646 -66.6773 179° South  Level FlightAware Approximate
Mon 01:56:00 PM 12.8924 -66.6762 179° South  Level FlightAware Approximate
Mon 01:57:00 PM 12.8201 -66.6751 179° South  Level FlightAware Approximate
Mon 01:58:00 PM 12.7479 -66.6740 179° South  Level FlightAware Approximate
Mon 01:59:00 PM 12.6756 -66.6729 179° South  Level FlightAware Approximate
Mon 02:00:00 PM 12.6034 -66.6718 179° South  Level FlightAware Approximate
Mon 02:01:00 PM 12.5311 -66.6707 179° South  Level FlightAware Approximate
Mon 02:02:00 PM 12.4589 -66.6696 179° South  Level FlightAware Approximate
Mon 02:03:00 PM 12.3866 -66.6685 179° South  Level FlightAware Approximate
Mon 02:04:00 PM 12.3144 -66.6674 179° South  Level FlightAware Approximate
Mon 02:05:00 PM 12.2421 -66.6667 180° South  Level FlightAware Approximate
Mon 02:06:00 PM 12.1698 -66.6667 180° South  Level FlightAware Approximate
Mon 02:07:00 PM 12.0976 -66.6667 180° South  Level FlightAware Approximate
Mon 02:08:00 PM 12.0253 -66.6667 180° South  Level FlightAware Approximate
Mon 02:09:00 PM 11.9530 -66.6667 180° South  Level FlightAware Approximate
Mon 02:10:00 PM 11.8815 -66.6753 189° South  Level FlightAware Approximate
Mon 02:11:00 PM 11.8105 -66.6890 194° South  Level FlightAware Approximate
Mon 02:12:00 PM 11.7403 -66.7066 194° South  Level FlightAware Approximate
Mon 02:13:00 PM 11.6702 -66.7242 194° South  Level FlightAware Approximate
Mon 02:14:00 PM 11.6000 -66.7417 194° South  Level FlightAware Approximate
Mon 02:15:00 PM 11.5298 -66.7593 194° South  Level FlightAware Approximate
Mon 02:16:00 PM 11.4596 -66.7768 194° South  Level FlightAware Approximate
Mon 02:17:00 PM 11.3894 -66.7943 194° South  Level FlightAware Approximate
Mon 02:18:00 PM 11.3187 -66.8096 191° South  Level FlightAware Approximate
Mon 02:19:00 PM 11.2478 -66.8238 191° South  Level FlightAware Approximate
Mon 02:20:00 PM 11.1774 -66.8398 196° South  Level FlightAware Approximate
Mon 02:21:00 PM 11.1078 -66.8597 196° South  Level FlightAware Approximate
Mon 02:22:00 PM 11.0378 -66.8781 194° South  Level FlightAware Approximate
Mon 02:23:00 PM 10.9676 -66.8956 194° South  Level FlightAware Approximate
Mon 02:24:00 PM 10.8975 -66.9131 194° South  Level FlightAware Approximate
Mon 02:25:00 PM 10.8273 -66.9307 194° South  Level FlightAware Approximate
Mon 02:26:00 PM 10.7568 -66.9466 192° South  Level FlightAware Approximate
Mon 02:27:00 PM 10.6861 -66.9623 192° South  Level FlightAware Approximate
Mon 02:28:00 PM 10.6159 -66.9794 194° South  Level FlightAware Approximate
Mon 02:29:00 PM 10.6000 -66.9667 90° East  Level FlightAware Approximate
Mon 02:30:00 PM 10.6031 -66.9906 90° East  Level Estimated
Mon 02:31:00 PM 10.6031 -66.9906 90° East  Level Estimated
Mon 02:32:00 PM 10.6031 -66.9906 90° East  Level Estimated
Mon 02:33:00 PM 10.6031 -66.9906 90° East  Level Estimated
Mon 02:34:00 PM 10.6031 -66.9906 90° East  Level Estimated
Mon 02:35:00 PM 10.6031 -66.9906 90° East  Level Estimated
Mon 02:36:00 PM 10.6031 -66.9906 90° East  Level Estimated
Mon 02:37:00 PM 10.6031 -66.9906 90° East  Level Estimated
Mon 02:38:00 PM 10.6031 -66.9906 90° East  Level Estimated
Mon 02:39:00 PM 10.6031 -66.9906 90° East  Level Estimated
Mon 02:40:00 PM 10.6031 -66.9906 90° East  Level Estimated
Mon 02:41:00 PM 10.6031 -66.9906 90° East  Level Estimated
Mon 02:42:00 PM 10.6031 -66.9906 90° East  Level Estimated
Mon 02:43:00 PM 10.6031 -66.9906 90° East  Level Estimated
Mon 02:44:00 PM 10.6031 -66.9906 90° East  Level Estimated

Login

Don't have an account? Register now (free) for customized features, flight alerts, and more!